Terminal Aerodrome Forecast
Issued by NWS

Home | Current Version | Previous Version | Text Only | Print | Product List | Glossary On
Versions: 1 2 3 4 5 6 7 8 9 10 11 12 13 14 15 16 17 18 19 20 21 22 23 24 25
187
FTUS46 KOTX 050642 AAA
TAFCOE
TAF AMD
KCOE 050642Z 0507/0606 23010G15KT P6SM -SHRA SCT060 SCT120
     FM050730 22010G17KT P6SM -TSRA SCT060CB BKN120
     FM050930 22007KT P6SM SCT080 BKN120
     FM051800 23007KT P6SM VCSH SCT070 BKN110
     FM052300 23006KT P6SM VCTS SCT060CB BKN120
      AMD LTD TO CLD VIS AND WIND=

USA.gov is the U.S. government's official web portal to all federal, state and local government web resources and services.